Lecontes Mills, Pennsylvania
Current Conditions -  °F | °C
As of 9:54 PM on Wednesday 26 Nov 2014 (Local Time) from KFIG Reporting Station
Overcast Overcast  
Wind Chill: 31°   Ceiling: 2900
Heat Index: 31°   Visibility: 10mi
Dew Point: 28°   Wind: 3mph
Humidity: 89%   Direction: 270°W
Pressure: 29.97"   Gusts: NA
Location:  41.08°N, 78.28°W
Report Text: KFIG 270254Z AUTO 27003KT 10SM OVC029 M01/M02 A2997 RMK AO2 SLP163 60000 T10061022 55001
Loading
Personal Weather Stations






























Interactive Weather Map New forecast layout! Learn more

10-Day Weather Forecast

Advertisements
Track Severe Weather on mobile